sensor_id;sensor_type;location;lat;lon;timestamp;P1;durP1;ratioP1;P2;durP2;ratioP2
48853;SDS011;34673;52.808;17.856;2023-02-15T00:00:06;54.47;;;26.25;;
48853;SDS011;34673;52.808;17.856;2023-02-15T00:02:38;45.72;;;23.92;;
48853;SDS011;34673;52.808;17.856;2023-02-15T00:05:06;47.28;;;23.40;;
48853;SDS011;34673;52.808;17.856;2023-02-15T00:07:34;50.78;;;23.85;;
48853;SDS011;34673;52.808;17.856;2023-02-15T00:10:02;50.20;;;24.70;;
48853;SDS011;34673;52.808;17.856;2023-02-15T00:12:30;52.70;;;25.02;;
48853;SDS011;34673;52.808;17.856;2023-02-15T00:14:57;46.28;;;23.60;;
48853;SDS011;34673;52.808;17.856;2023-02-15T00:17:27;46.60;;;23.70;;
48853;SDS011;34673;52.808;17.856;2023-02-15T00:19:55;57.92;;;25.42;;
48853;SDS011;34673;52.808;17.856;2023-02-15T00:22:22;54.05;;;25.25;;
48853;SDS011;34673;52.808;17.856;2023-02-15T00:24:50;53.67;;;25.58;;
48853;SDS011;34673;52.808;17.856;2023-02-15T00:27:17;52.03;;;25.58;;
48853;SDS011;34673;52.808;17.856;2023-02-15T00:29:46;58.72;;;26.77;;
48853;SDS011;34673;52.808;17.856;2023-02-15T00:32:14;49.25;;;25.55;;
48853;SDS011;34673;52.808;17.856;2023-02-15T00:34:41;49.30;;;23.95;;
48853;SDS011;34673;52.808;17.856;2023-02-15T00:37:08;47.78;;;23.85;;
48853;SDS011;34673;52.808;17.856;2023-02-15T00:39:36;50.58;;;24.10;;
48853;SDS011;34673;52.808;17.856;2023-02-15T00:42:04;50.33;;;24.98;;
48853;SDS011;34673;52.808;17.856;2023-02-15T00:44:32;50.08;;;25.30;;
48853;SDS011;34673;52.808;17.856;2023-02-15T00:46:59;53.60;;;24.08;;
48853;SDS011;34673;52.808;17.856;2023-02-15T00:49:27;58.65;;;25.85;;
48853;SDS011;34673;52.808;17.856;2023-02-15T00:51:54;53.63;;;25.25;;
48853;SDS011;34673;52.808;17.856;2023-02-15T00:54:21;58.70;;;25.40;;
48853;SDS011;34673;52.808;17.856;2023-02-15T00:56:48;52.30;;;24.38;;
48853;SDS011;34673;52.808;17.856;2023-02-15T00:59:16;52.28;;;24.17;;
48853;SDS011;34673;52.808;17.856;2023-02-15T01:01:43;48.10;;;25.25;;
48853;SDS011;34673;52.808;17.856;2023-02-15T01:04:11;52.28;;;25.40;;
48853;SDS011;34673;52.808;17.856;2023-02-15T01:06:38;53.85;;;25.80;;
48853;SDS011;34673;52.808;17.856;2023-02-15T01:09:06;48.63;;;23.42;;
48853;SDS011;34673;52.808;17.856;2023-02-15T01:11:35;52.85;;;25.88;;
48853;SDS011;34673;52.808;17.856;2023-02-15T01:14:03;49.05;;;24.50;;
48853;SDS011;34673;52.808;17.856;2023-02-15T01:16:32;48.97;;;24.45;;
48853;SDS011;34673;52.808;17.856;2023-02-15T01:18:59;52.38;;;24.95;;
48853;SDS011;34673;52.808;17.856;2023-02-15T01:21:30;50.80;;;25.52;;
48853;SDS011;34673;52.808;17.856;2023-02-15T01:24:01;53.88;;;25.45;;
48853;SDS011;34673;52.808;17.856;2023-02-15T01:26:29;49.83;;;24.15;;
48853;SDS011;34673;52.808;17.856;2023-02-15T01:28:57;53.03;;;24.58;;
48853;SDS011;34673;52.808;17.856;2023-02-15T01:31:24;50.22;;;23.60;;
48853;SDS011;34673;52.808;17.856;2023-02-15T01:33:52;47.58;;;25.00;;
48853;SDS011;34673;52.808;17.856;2023-02-15T01:36:19;46.80;;;23.30;;
48853;SDS011;34673;52.808;17.856;2023-02-15T01:38:46;52.58;;;25.27;;
48853;SDS011;34673;52.808;17.856;2023-02-15T01:41:14;53.85;;;24.92;;
48853;SDS011;34673;52.808;17.856;2023-02-15T01:43:51;51.22;;;25.05;;
48853;SDS011;34673;52.808;17.856;2023-02-15T01:46:22;58.20;;;26.60;;
48853;SDS011;34673;52.808;17.856;2023-02-15T01:49:00;55.30;;;26.10;;
48853;SDS011;34673;52.808;17.856;2023-02-15T01:51:32;56.40;;;26.05;;
48853;SDS011;34673;52.808;17.856;2023-02-15T01:54:09;53.28;;;25.65;;
48853;SDS011;34673;52.808;17.856;2023-02-15T01:56:52;58.67;;;26.08;;
48853;SDS011;34673;52.808;17.856;2023-02-15T01:59:24;49.40;;;24.45;;
48853;SDS011;34673;52.808;17.856;2023-02-15T02:01:54;48.47;;;25.13;;
48853;SDS011;34673;52.808;17.856;2023-02-15T02:04:32;52.45;;;25.83;;
48853;SDS011;34673;52.808;17.856;2023-02-15T02:07:04;52.50;;;25.85;;
48853;SDS011;34673;52.808;17.856;2023-02-15T02:09:33;56.17;;;27.33;;
48853;SDS011;34673;52.808;17.856;2023-02-15T02:12:02;54.17;;;26.80;;
48853;SDS011;34673;52.808;17.856;2023-02-15T02:14:30;59.83;;;27.65;;
48853;SDS011;34673;52.808;17.856;2023-02-15T02:28:31;50.75;;;25.15;;
48853;SDS011;34673;52.808;17.856;2023-02-15T02:34:18;52.47;;;25.80;;
48853;SDS011;34673;52.808;17.856;2023-02-15T02:40:08;55.00;;;27.23;;
48853;SDS011;34673;52.808;17.856;2023-02-15T02:42:44;56.67;;;26.52;;
48853;SDS011;34673;52.808;17.856;2023-02-15T02:48:22;49.13;;;24.88;;
48853;SDS011;34673;52.808;17.856;2023-02-15T02:50:52;52.22;;;25.15;;
48853;SDS011;34673;52.808;17.856;2023-02-15T02:53:20;46.15;;;23.35;;
48853;SDS011;34673;52.808;17.856;2023-02-15T02:55:50;50.47;;;25.80;;
48853;SDS011;34673;52.808;17.856;2023-02-15T02:58:29;58.67;;;26.00;;
48853;SDS011;34673;52.808;17.856;2023-02-15T03:01:06;50.97;;;25.25;;
48853;SDS011;34673;52.808;17.856;2023-02-15T03:03:44;48.53;;;24.85;;
48853;SDS011;34673;52.808;17.856;2023-02-15T03:06:22;50.88;;;24.92;;
48853;SDS011;34673;52.808;17.856;2023-02-15T03:09:08;52.22;;;25.17;;
48853;SDS011;34673;52.808;17.856;2023-02-15T03:11:42;51.83;;;25.55;;
48853;SDS011;34673;52.808;17.856;2023-02-15T03:14:12;60.30;;;28.73;;
48853;SDS011;34673;52.808;17.856;2023-02-15T03:16:42;56.85;;;27.20;;
48853;SDS011;34673;52.808;17.856;2023-02-15T03:19:17;48.42;;;25.40;;
48853;SDS011;34673;52.808;17.856;2023-02-15T03:21:51;52.10;;;27.30;;
48853;SDS011;34673;52.808;17.856;2023-02-15T03:27:17;52.63;;;26.17;;
48853;SDS011;34673;52.808;17.856;2023-02-15T03:29:50;58.65;;;27.98;;
48853;SDS011;34673;52.808;17.856;2023-02-15T03:32:24;55.70;;;27.83;;
48853;SDS011;34673;52.808;17.856;2023-02-15T03:34:54;57.53;;;27.70;;
48853;SDS011;34673;52.808;17.856;2023-02-15T03:40:10;55.73;;;27.37;;
48853;SDS011;34673;52.808;17.856;2023-02-15T03:43:23;52.90;;;26.77;;
48853;SDS011;34673;52.808;17.856;2023-02-15T03:46:12;62.67;;;28.15;;
48853;SDS011;34673;52.808;17.856;2023-02-15T03:48:54;50.08;;;26.35;;
48853;SDS011;34673;52.808;17.856;2023-02-15T03:51:29;53.22;;;27.58;;
48853;SDS011;34673;52.808;17.856;2023-02-15T03:57:11;58.88;;;26.67;;
48853;SDS011;34673;52.808;17.856;2023-02-15T03:59:57;48.03;;;25.45;;
48853;SDS011;34673;52.808;17.856;2023-02-15T04:05:35;59.58;;;28.20;;
48853;SDS011;34673;52.808;17.856;2023-02-15T04:08:03;53.45;;;27.00;;
48853;SDS011;34673;52.808;17.856;2023-02-15T04:10:31;60.00;;;28.17;;
48853;SDS011;34673;52.808;17.856;2023-02-15T04:13:16;54.95;;;26.77;;
48853;SDS011;34673;52.808;17.856;2023-02-15T04:15:43;49.75;;;26.75;;
48853;SDS011;34673;52.808;17.856;2023-02-15T04:18:33;57.30;;;28.50;;
48853;SDS011;34673;52.808;17.856;2023-02-15T04:21:19;51.60;;;27.55;;
48853;SDS011;34673;52.808;17.856;2023-02-15T04:24:06;60.10;;;28.77;;
48853;SDS011;34673;52.808;17.856;2023-02-15T04:26:52;52.97;;;26.73;;
48853;SDS011;34673;52.808;17.856;2023-02-15T04:29:20;57.55;;;27.65;;
48853;SDS011;34673;52.808;17.856;2023-02-15T04:31:49;69.63;;;31.65;;
48853;SDS011;34673;52.808;17.856;2023-02-15T04:34:17;58.38;;;27.63;;
48853;SDS011;34673;52.808;17.856;2023-02-15T04:36:44;55.65;;;27.73;;
48853;SDS011;34673;52.808;17.856;2023-02-15T04:39:13;59.30;;;28.48;;
48853;SDS011;34673;52.808;17.856;2023-02-15T04:41:42;52.00;;;25.48;;
48853;SDS011;34673;52.808;17.856;2023-02-15T04:44:10;55.13;;;26.45;;
48853;SDS011;34673;52.808;17.856;2023-02-15T04:46:37;48.08;;;24.73;;
48853;SDS011;34673;52.808;17.856;2023-02-15T04:49:05;58.38;;;26.17;;
48853;SDS011;34673;52.808;17.856;2023-02-15T04:51:32;46.67;;;23.90;;
48853;SDS011;34673;52.808;17.856;2023-02-15T04:54:00;55.53;;;25.92;;
48853;SDS011;34673;52.808;17.856;2023-02-15T04:56:27;44.25;;;23.10;;
48853;SDS011;34673;52.808;17.856;2023-02-15T04:58:56;50.70;;;25.13;;
48853;SDS011;34673;52.808;17.856;2023-02-15T05:01:24;45.50;;;23.70;;
48853;SDS011;34673;52.808;17.856;2023-02-15T05:03:51;49.97;;;25.33;;
48853;SDS011;34673;52.808;17.856;2023-02-15T05:06:18;49.17;;;26.52;;
48853;SDS011;34673;52.808;17.856;2023-02-15T05:08:46;51.42;;;25.88;;
48853;SDS011;34673;52.808;17.856;2023-02-15T05:11:13;52.42;;;26.08;;
48853;SDS011;34673;52.808;17.856;2023-02-15T05:13:41;51.38;;;25.40;;
48853;SDS011;34673;52.808;17.856;2023-02-15T05:16:08;52.50;;;25.67;;
48853;SDS011;34673;52.808;17.856;2023-02-15T05:18:35;55.63;;;26.83;;
48853;SDS011;34673;52.808;17.856;2023-02-15T05:21:03;55.92;;;26.88;;
48853;SDS011;34673;52.808;17.856;2023-02-15T05:23:31;56.42;;;27.55;;
48853;SDS011;34673;52.808;17.856;2023-02-15T05:25:58;54.15;;;26.30;;
48853;SDS011;34673;52.808;17.856;2023-02-15T05:28:44;50.83;;;25.15;;
48853;SDS011;34673;52.808;17.856;2023-02-15T05:31:16;53.13;;;24.88;;
48853;SDS011;34673;52.808;17.856;2023-02-15T05:33:46;54.47;;;26.83;;
48853;SDS011;34673;52.808;17.856;2023-02-15T05:36:13;54.50;;;25.98;;
48853;SDS011;34673;52.808;17.856;2023-02-15T05:38:41;51.85;;;25.13;;
48853;SDS011;34673;52.808;17.856;2023-02-15T05:41:09;49.00;;;24.83;;
48853;SDS011;34673;52.808;17.856;2023-02-15T05:43:38;50.40;;;26.37;;
48853;SDS011;34673;52.808;17.856;2023-02-15T05:46:06;61.95;;;26.52;;
48853;SDS011;34673;52.808;17.856;2023-02-15T05:48:34;57.03;;;26.05;;
48853;SDS011;34673;52.808;17.856;2023-02-15T05:51:03;54.90;;;26.02;;
48853;SDS011;34673;52.808;17.856;2023-02-15T05:53:36;52.10;;;25.23;;
48853;SDS011;34673;52.808;17.856;2023-02-15T05:56:05;48.38;;;24.83;;
48853;SDS011;34673;52.808;17.856;2023-02-15T05:58:35;53.83;;;25.40;;
48853;SDS011;34673;52.808;17.856;2023-02-15T06:01:07;54.13;;;26.20;;
48853;SDS011;34673;52.808;17.856;2023-02-15T06:03:42;55.15;;;25.50;;
48853;SDS011;34673;52.808;17.856;2023-02-15T06:06:10;49.53;;;24.58;;
48853;SDS011;34673;52.808;17.856;2023-02-15T06:08:37;52.78;;;26.08;;
48853;SDS011;34673;52.808;17.856;2023-02-15T06:11:05;54.42;;;26.60;;
48853;SDS011;34673;52.808;17.856;2023-02-15T06:13:33;54.30;;;27.67;;
48853;SDS011;34673;52.808;17.856;2023-02-15T06:16:04;62.88;;;29.38;;
48853;SDS011;34673;52.808;17.856;2023-02-15T06:18:33;64.97;;;31.85;;
48853;SDS011;34673;52.808;17.856;2023-02-15T06:21:01;72.90;;;31.65;;
48853;SDS011;34673;52.808;17.856;2023-02-15T06:23:28;75.50;;;35.85;;
48853;SDS011;34673;52.808;17.856;2023-02-15T06:25:56;77.10;;;34.55;;
48853;SDS011;34673;52.808;17.856;2023-02-15T06:28:24;74.22;;;35.95;;
48853;SDS011;34673;52.808;17.856;2023-02-15T06:30:52;77.78;;;35.80;;
48853;SDS011;34673;52.808;17.856;2023-02-15T06:33:19;84.03;;;37.78;;
48853;SDS011;34673;52.808;17.856;2023-02-15T06:35:47;75.50;;;35.75;;
48853;SDS011;34673;52.808;17.856;2023-02-15T06:38:14;77.15;;;35.92;;
48853;SDS011;34673;52.808;17.856;2023-02-15T06:40:41;75.70;;;34.22;;
48853;SDS011;34673;52.808;17.856;2023-02-15T06:43:08;78.45;;;37.25;;
48853;SDS011;34673;52.808;17.856;2023-02-15T06:45:36;86.15;;;39.20;;
48853;SDS011;34673;52.808;17.856;2023-02-15T06:48:03;87.88;;;38.40;;
48853;SDS011;34673;52.808;17.856;2023-02-15T06:53:01;71.95;;;35.25;;
48853;SDS011;34673;52.808;17.856;2023-02-15T06:55:28;79.95;;;36.92;;
48853;SDS011;34673;52.808;17.856;2023-02-15T06:57:56;84.47;;;39.85;;
48853;SDS011;34673;52.808;17.856;2023-02-15T07:00:23;76.93;;;37.72;;
48853;SDS011;34673;52.808;17.856;2023-02-15T07:02:54;83.05;;;39.30;;
48853;SDS011;34673;52.808;17.856;2023-02-15T07:05:23;83.93;;;39.30;;
48853;SDS011;34673;52.808;17.856;2023-02-15T07:07:50;88.93;;;41.10;;
48853;SDS011;34673;52.808;17.856;2023-02-15T07:10:18;92.70;;;40.70;;
48853;SDS011;34673;52.808;17.856;2023-02-15T07:12:45;90.55;;;42.67;;
48853;SDS011;34673;52.808;17.856;2023-02-15T07:15:14;84.95;;;42.22;;
48853;SDS011;34673;52.808;17.856;2023-02-15T07:17:43;86.00;;;42.08;;
48853;SDS011;34673;52.808;17.856;2023-02-15T07:20:13;90.13;;;42.25;;
48853;SDS011;34673;52.808;17.856;2023-02-15T07:22:41;92.97;;;43.83;;
48853;SDS011;34673;52.808;17.856;2023-02-15T07:25:10;98.85;;;45.80;;
48853;SDS011;34673;52.808;17.856;2023-02-15T07:27:38;90.82;;;42.25;;
48853;SDS011;34673;52.808;17.856;2023-02-15T07:30:07;82.95;;;42.03;;
48853;SDS011;34673;52.808;17.856;2023-02-15T07:32:36;83.10;;;41.67;;
48853;SDS011;34673;52.808;17.856;2023-02-15T07:35:23;94.35;;;44.30;;
48853;SDS011;34673;52.808;17.856;2023-02-15T07:37:51;92.65;;;44.67;;
48853;SDS011;34673;52.808;17.856;2023-02-15T07:40:20;99.38;;;44.10;;
48853;SDS011;34673;52.808;17.856;2023-02-15T07:45:21;95.80;;;45.45;;
48853;SDS011;34673;52.808;17.856;2023-02-15T07:47:49;91.78;;;43.10;;
48853;SDS011;34673;52.808;17.856;2023-02-15T07:50:16;91.63;;;43.65;;
48853;SDS011;34673;52.808;17.856;2023-02-15T07:52:43;93.53;;;45.65;;
48853;SDS011;34673;52.808;17.856;2023-02-15T07:55:11;91.72;;;45.85;;
48853;SDS011;34673;52.808;17.856;2023-02-15T07:57:45;91.82;;;44.25;;
48853;SDS011;34673;52.808;17.856;2023-02-15T08:00:15;97.70;;;48.08;;
48853;SDS011;34673;52.808;17.856;2023-02-15T08:02:48;98.50;;;48.05;;
48853;SDS011;34673;52.808;17.856;2023-02-15T08:05:40;89.85;;;44.60;;
48853;SDS011;34673;52.808;17.856;2023-02-15T08:08:09;91.32;;;48.45;;
48853;SDS011;34673;52.808;17.856;2023-02-15T08:11:03;89.75;;;43.50;;
48853;SDS011;34673;52.808;17.856;2023-02-15T08:13:53;85.13;;;42.00;;
48853;SDS011;34673;52.808;17.856;2023-02-15T08:16:31;81.97;;;40.50;;
48853;SDS011;34673;52.808;17.856;2023-02-15T08:19:04;90.80;;;43.97;;
48853;SDS011;34673;52.808;17.856;2023-02-15T08:21:32;91.57;;;45.67;;
48853;SDS011;34673;52.808;17.856;2023-02-15T08:24:00;90.65;;;43.97;;
48853;SDS011;34673;52.808;17.856;2023-02-15T08:26:30;89.40;;;42.88;;
48853;SDS011;34673;52.808;17.856;2023-02-15T08:28:58;89.40;;;43.03;;
48853;SDS011;34673;52.808;17.856;2023-02-15T08:31:27;92.43;;;44.53;;
48853;SDS011;34673;52.808;17.856;2023-02-15T08:33:56;93.50;;;44.47;;
48853;SDS011;34673;52.808;17.856;2023-02-15T08:36:25;78.45;;;40.65;;
48853;SDS011;34673;52.808;17.856;2023-02-15T08:38:57;82.60;;;42.28;;
48853;SDS011;34673;52.808;17.856;2023-02-15T08:41:26;79.13;;;38.75;;
48853;SDS011;34673;52.808;17.856;2023-02-15T08:43:57;69.72;;;35.72;;
48853;SDS011;34673;52.808;17.856;2023-02-15T08:46:27;79.88;;;39.97;;
48853;SDS011;34673;52.808;17.856;2023-02-15T08:48:57;74.68;;;36.20;;
48853;SDS011;34673;52.808;17.856;2023-02-15T08:51:26;69.38;;;35.25;;
48853;SDS011;34673;52.808;17.856;2023-02-15T08:53:56;71.18;;;35.38;;
48853;SDS011;34673;52.808;17.856;2023-02-15T08:56:26;74.30;;;35.88;;
48853;SDS011;34673;52.808;17.856;2023-02-15T08:58:55;70.03;;;34.08;;
48853;SDS011;34673;52.808;17.856;2023-02-15T09:01:24;59.85;;;32.05;;
48853;SDS011;34673;52.808;17.856;2023-02-15T09:06:27;62.70;;;33.30;;
48853;SDS011;34673;52.808;17.856;2023-02-15T09:08:55;58.17;;;31.08;;
48853;SDS011;34673;52.808;17.856;2023-02-15T09:11:30;63.13;;;31.23;;
48853;SDS011;34673;52.808;17.856;2023-02-15T09:14:02;59.30;;;31.55;;
48853;SDS011;34673;52.808;17.856;2023-02-15T09:16:32;59.92;;;30.55;;
48853;SDS011;34673;52.808;17.856;2023-02-15T09:19:00;58.17;;;31.30;;
48853;SDS011;34673;52.808;17.856;2023-02-15T09:21:31;58.42;;;31.00;;
48853;SDS011;34673;52.808;17.856;2023-02-15T09:24:02;57.35;;;31.92;;
48853;SDS011;34673;52.808;17.856;2023-02-15T09:26:37;56.63;;;30.23;;
48853;SDS011;34673;52.808;17.856;2023-02-15T09:29:09;55.78;;;30.02;;
48853;SDS011;34673;52.808;17.856;2023-02-15T09:31:38;54.05;;;31.50;;
48853;SDS011;34673;52.808;17.856;2023-02-15T09:34:08;57.28;;;30.65;;
48853;SDS011;34673;52.808;17.856;2023-02-15T09:36:36;58.42;;;30.85;;
48853;SDS011;34673;52.808;17.856;2023-02-15T09:39:15;57.65;;;31.23;;
48853;SDS011;34673;52.808;17.856;2023-02-15T10:00:48;60.87;;;33.40;;
48853;SDS011;34673;52.808;17.856;2023-02-15T10:11:54;64.22;;;33.42;;
48853;SDS011;34673;52.808;17.856;2023-02-15T10:20:04;58.88;;;32.05;;
48853;SDS011;34673;52.808;17.856;2023-02-15T10:25:40;61.85;;;32.83;;
48853;SDS011;34673;52.808;17.856;2023-02-15T10:28:15;69.13;;;34.75;;
48853;SDS011;34673;52.808;17.856;2023-02-15T10:30:49;62.97;;;33.30;;
48853;SDS011;34673;52.808;17.856;2023-02-15T10:33:40;59.28;;;32.38;;
48853;SDS011;34673;52.808;17.856;2023-02-15T10:42:11;66.32;;;34.70;;
48853;SDS011;34673;52.808;17.856;2023-02-15T10:47:59;67.23;;;35.47;;
48853;SDS011;34673;52.808;17.856;2023-02-15T10:50:40;63.60;;;35.60;;
48853;SDS011;34673;52.808;17.856;2023-02-15T11:02:10;66.40;;;34.25;;
48853;SDS011;34673;52.808;17.856;2023-02-15T11:04:55;62.65;;;32.75;;
48853;SDS011;34673;52.808;17.856;2023-02-15T11:07:35;67.47;;;33.60;;
48853;SDS011;34673;52.808;17.856;2023-02-15T11:10:51;66.50;;;34.75;;
48853;SDS011;34673;52.808;17.856;2023-02-15T11:13:12;62.28;;;32.58;;
48853;SDS011;34673;52.808;17.856;2023-02-15T11:15:44;63.88;;;33.55;;
48853;SDS011;34673;52.808;17.856;2023-02-15T11:18:23;69.63;;;36.42;;
48853;SDS011;34673;52.808;17.856;2023-02-15T11:23:52;65.07;;;34.50;;
48853;SDS011;34673;52.808;17.856;2023-02-15T11:26:27;68.72;;;35.72;;
48853;SDS011;34673;52.808;17.856;2023-02-15T11:29:02;67.05;;;35.58;;
48853;SDS011;34673;52.808;17.856;2023-02-15T11:31:37;70.78;;;36.40;;
48853;SDS011;34673;52.808;17.856;2023-02-15T11:34:23;68.80;;;34.42;;
48853;SDS011;34673;52.808;17.856;2023-02-15T11:37:08;68.60;;;34.83;;
48853;SDS011;34673;52.808;17.856;2023-02-15T11:39:40;67.88;;;34.65;;
48853;SDS011;34673;52.808;17.856;2023-02-15T11:42:11;67.25;;;35.67;;
48853;SDS011;34673;52.808;17.856;2023-02-15T11:47:25;67.10;;;34.80;;
48853;SDS011;34673;52.808;17.856;2023-02-15T11:49:54;65.93;;;35.00;;
48853;SDS011;34673;52.808;17.856;2023-02-15T11:52:21;68.18;;;35.42;;
48853;SDS011;34673;52.808;17.856;2023-02-15T11:54:49;72.18;;;34.88;;
48853;SDS011;34673;52.808;17.856;2023-02-15T12:02:44;68.15;;;36.17;;
48853;SDS011;34673;52.808;17.856;2023-02-15T12:05:17;69.40;;;35.22;;
48853;SDS011;34673;52.808;17.856;2023-02-15T12:07:53;70.63;;;36.08;;
48853;SDS011;34673;52.808;17.856;2023-02-15T12:10:32;70.97;;;36.50;;
48853;SDS011;34673;52.808;17.856;2023-02-15T12:13:11;69.40;;;35.03;;
48853;SDS011;34673;52.808;17.856;2023-02-15T12:15:42;73.65;;;39.13;;
48853;SDS011;34673;52.808;17.856;2023-02-15T12:18:20;69.32;;;35.53;;
48853;SDS011;34673;52.808;17.856;2023-02-15T12:21:15;69.32;;;36.17;;
48853;SDS011;34673;52.808;17.856;2023-02-15T12:23:57;74.55;;;37.22;;
48853;SDS011;34673;52.808;17.856;2023-02-15T12:26:32;66.78;;;34.53;;
48853;SDS011;34673;52.808;17.856;2023-02-15T12:29:06;70.97;;;34.03;;
48853;SDS011;34673;52.808;17.856;2023-02-15T12:31:45;70.03;;;37.30;;
48853;SDS011;34673;52.808;17.856;2023-02-15T12:34:19;70.93;;;36.72;;
48853;SDS011;34673;52.808;17.856;2023-02-15T12:36:51;65.78;;;34.20;;
48853;SDS011;34673;52.808;17.856;2023-02-15T12:39:25;66.43;;;36.88;;
48853;SDS011;34673;52.808;17.856;2023-02-15T12:42:01;68.43;;;34.60;;
48853;SDS011;34673;52.808;17.856;2023-02-15T12:44:35;69.45;;;37.47;;
48853;SDS011;34673;52.808;17.856;2023-02-15T12:49:43;69.85;;;39.60;;
48853;SDS011;34673;52.808;17.856;2023-02-15T12:54:47;68.82;;;33.78;;
48853;SDS011;34673;52.808;17.856;2023-02-15T13:02:48;68.72;;;34.58;;
48853;SDS011;34673;52.808;17.856;2023-02-15T13:05:34;64.78;;;33.40;;
48853;SDS011;34673;52.808;17.856;2023-02-15T13:13:26;68.57;;;33.90;;
48853;SDS011;34673;52.808;17.856;2023-02-15T13:15:59;72.30;;;37.28;;
48853;SDS011;34673;52.808;17.856;2023-02-15T13:18:32;67.10;;;35.05;;
48853;SDS011;34673;52.808;17.856;2023-02-15T13:21:09;63.50;;;34.75;;
48853;SDS011;34673;52.808;17.856;2023-02-15T13:23:42;70.22;;;36.95;;
48853;SDS011;34673;52.808;17.856;2023-02-15T13:26:14;68.97;;;36.20;;
48853;SDS011;34673;52.808;17.856;2023-02-15T13:28:46;66.90;;;35.47;;
48853;SDS011;34673;52.808;17.856;2023-02-15T13:31:20;68.70;;;35.35;;
48853;SDS011;34673;52.808;17.856;2023-02-15T13:33:51;68.72;;;35.38;;
48853;SDS011;34673;52.808;17.856;2023-02-15T13:36:39;67.45;;;34.38;;
48853;SDS011;34673;52.808;17.856;2023-02-15T13:39:14;71.80;;;36.05;;
48853;SDS011;34673;52.808;17.856;2023-02-15T13:47:52;69.90;;;37.00;;
48853;SDS011;34673;52.808;17.856;2023-02-15T13:50:52;70.25;;;35.80;;
48853;SDS011;34673;52.808;17.856;2023-02-15T14:07:40;71.38;;;34.88;;
48853;SDS011;34673;52.808;17.856;2023-02-15T14:10:23;67.22;;;35.00;;
48853;SDS011;34673;52.808;17.856;2023-02-15T14:13:05;62.40;;;32.80;;
48853;SDS011;34673;52.808;17.856;2023-02-15T14:15:47;68.40;;;36.45;;
48853;SDS011;34673;52.808;17.856;2023-02-15T14:27:15;73.90;;;35.97;;
48853;SDS011;34673;52.808;17.856;2023-02-15T14:35:00;76.70;;;38.72;;
48853;SDS011;34673;52.808;17.856;2023-02-15T14:40:17;73.95;;;36.35;;
48853;SDS011;34673;52.808;17.856;2023-02-15T14:43:17;71.78;;;34.40;;
48853;SDS011;34673;52.808;17.856;2023-02-15T14:48:30;69.10;;;34.78;;
48853;SDS011;34673;52.808;17.856;2023-02-15T14:51:00;73.85;;;36.17;;
48853;SDS011;34673;52.808;17.856;2023-02-15T14:56:06;79.75;;;38.30;;
48853;SDS011;34673;52.808;17.856;2023-02-15T15:01:17;76.93;;;37.72;;
48853;SDS011;34673;52.808;17.856;2023-02-15T15:03:58;75.03;;;35.88;;
48853;SDS011;34673;52.808;17.856;2023-02-15T15:06:32;72.43;;;35.92;;
48853;SDS011;34673;52.808;17.856;2023-02-15T15:09:12;77.85;;;37.95;;
48853;SDS011;34673;52.808;17.856;2023-02-15T15:11:50;73.93;;;36.53;;
48853;SDS011;34673;52.808;17.856;2023-02-15T15:17:02;77.43;;;36.97;;
48853;SDS011;34673;52.808;17.856;2023-02-15T15:22:20;81.25;;;37.78;;
48853;SDS011;34673;52.808;17.856;2023-02-15T15:25:00;74.95;;;36.15;;
48853;SDS011;34673;52.808;17.856;2023-02-15T15:27:38;76.05;;;37.75;;
48853;SDS011;34673;52.808;17.856;2023-02-15T15:32:44;78.18;;;38.42;;
48853;SDS011;34673;52.808;17.856;2023-02-15T15:35:44;83.28;;;38.85;;
48853;SDS011;34673;52.808;17.856;2023-02-15T15:38:46;81.83;;;38.60;;
48853;SDS011;34673;52.808;17.856;2023-02-15T15:41:43;91.15;;;40.90;;
48853;SDS011;34673;52.808;17.856;2023-02-15T15:47:26;80.78;;;39.25;;
48853;SDS011;34673;52.808;17.856;2023-02-15T15:50:21;87.45;;;39.17;;
48853;SDS011;34673;52.808;17.856;2023-02-15T15:52:51;85.13;;;40.38;;
48853;SDS011;34673;52.808;17.856;2023-02-15T15:55:23;82.18;;;38.03;;
48853;SDS011;34673;52.808;17.856;2023-02-15T15:58:05;90.88;;;42.30;;
48853;SDS011;34673;52.808;17.856;2023-02-15T16:00:49;84.43;;;38.58;;
48853;SDS011;34673;52.808;17.856;2023-02-15T16:03:21;84.47;;;39.30;;
48853;SDS011;34673;52.808;17.856;2023-02-15T16:05:50;87.80;;;40.60;;
48853;SDS011;34673;52.808;17.856;2023-02-15T16:08:35;90.38;;;41.30;;
48853;SDS011;34673;52.808;17.856;2023-02-15T16:11:14;87.32;;;40.45;;
48853;SDS011;34673;52.808;17.856;2023-02-15T16:13:47;87.25;;;40.83;;
48853;SDS011;34673;52.808;17.856;2023-02-15T16:16:19;89.45;;;40.05;;
48853;SDS011;34673;52.808;17.856;2023-02-15T16:18:58;90.93;;;40.50;;
48853;SDS011;34673;52.808;17.856;2023-02-15T16:21:28;92.55;;;41.10;;
48853;SDS011;34673;52.808;17.856;2023-02-15T16:24:04;95.25;;;44.35;;
48853;SDS011;34673;52.808;17.856;2023-02-15T16:29:25;92.05;;;42.47;;
48853;SDS011;34673;52.808;17.856;2023-02-15T16:31:59;93.15;;;41.50;;
48853;SDS011;34673;52.808;17.856;2023-02-15T16:34:27;96.45;;;40.80;;
48853;SDS011;34673;52.808;17.856;2023-02-15T16:37:12;89.43;;;39.72;;
48853;SDS011;34673;52.808;17.856;2023-02-15T16:39:48;99.67;;;42.97;;
48853;SDS011;34673;52.808;17.856;2023-02-15T16:42:17;89.20;;;39.42;;
48853;SDS011;34673;52.808;17.856;2023-02-15T16:44:45;82.38;;;37.95;;
48853;SDS011;34673;52.808;17.856;2023-02-15T16:47:17;98.55;;;42.65;;
48853;SDS011;34673;52.808;17.856;2023-02-15T16:49:52;86.57;;;39.15;;
48853;SDS011;34673;52.808;17.856;2023-02-15T16:52:24;91.97;;;40.90;;
48853;SDS011;34673;52.808;17.856;2023-02-15T16:55:01;93.50;;;40.72;;
48853;SDS011;34673;52.808;17.856;2023-02-15T16:57:35;94.05;;;41.78;;
48853;SDS011;34673;52.808;17.856;2023-02-15T17:00:06;97.55;;;40.30;;
48853;SDS011;34673;52.808;17.856;2023-02-15T17:02:52;99.10;;;41.22;;
48853;SDS011;34673;52.808;17.856;2023-02-15T17:05:22;101.88;;;45.28;;
48853;SDS011;34673;52.808;17.856;2023-02-15T17:07:51;94.82;;;42.03;;
48853;SDS011;34673;52.808;17.856;2023-02-15T17:10:38;100.93;;;42.38;;
48853;SDS011;34673;52.808;17.856;2023-02-15T17:13:12;93.40;;;42.88;;
48853;SDS011;34673;52.808;17.856;2023-02-15T17:15:46;99.95;;;41.75;;
48853;SDS011;34673;52.808;17.856;2023-02-15T17:18:33;99.70;;;41.90;;
48853;SDS011;34673;52.808;17.856;2023-02-15T17:21:13;102.32;;;43.88;;
48853;SDS011;34673;52.808;17.856;2023-02-15T17:23:47;102.45;;;44.40;;
48853;SDS011;34673;52.808;17.856;2023-02-15T17:26:29;103.57;;;43.88;;
48853;SDS011;34673;52.808;17.856;2023-02-15T17:29:14;107.60;;;46.70;;
48853;SDS011;34673;52.808;17.856;2023-02-15T17:31:55;115.97;;;48.33;;
48853;SDS011;34673;52.808;17.856;2023-02-15T17:34:46;111.60;;;46.05;;
48853;SDS011;34673;52.808;17.856;2023-02-15T17:37:26;109.37;;;46.20;;
48853;SDS011;34673;52.808;17.856;2023-02-15T17:39:56;111.25;;;46.28;;
48853;SDS011;34673;52.808;17.856;2023-02-15T17:42:25;108.80;;;45.67;;